Time;durP1;ratioP1;P1;durP2;ratioP2;P2;SDS_P1;SDS_P2;PMS_P1;PMS_P2;Temp;Humidity;BMP_temperature;BMP_pressure;BME280_temperature;BME280_humidity;BME280_pressure;Samples;Min_cycle;Max_cycle;Signal;HPM_P1;HPM_P2
2022/06/29 11:54:06;;;;;;;1.92;0.95;;;;;;;38.32;25.21;98923.81;6040930;23;20172;-85
2022/06/29 11:56:32;;;;;;;9.95;1.65;;;;;;;37.93;24.12;98915.88;6015360;23;20594;-85
2022/06/29 11:59:03;;;;;;;1.45;0.75;;;;;;;38.05;25.02;98912.97;6040205;23;20151;-84
2022/06/29 12:01:29;;;;;;;1.20;0.68;;;;;;;37.67;23.84;98916.72;6040832;23;20154;-85
2022/06/29 12:03:57;;;;;;;5.35;0.75;;;;;;;38.28;23.60;98912.53;6015350;23;20204;-85
2022/06/29 12:06:25;;;;;;;3.25;0.90;;;;;;;38.53;22.95;98901.75;6040781;23;20153;-84
2022/06/29 12:08:52;;;;;;;4.85;1.35;;;;;;;38.39;24.21;98899.78;6016229;23;20178;-85
2022/06/29 12:11:21;;;;;;;2.50;1.05;;;;;;;38.28;24.15;98900.75;6014820;23;20161;-84
2022/06/29 12:13:46;;;;;;;2.80;0.80;;;;;;;37.85;24.49;98908.09;6040034;23;20154;-86
2022/06/29 12:16:13;;;;;;;3.22;0.85;;;;;;;37.73;24.90;98903.91;6040011;23;20196;-86
2022/06/29 12:18:39;;;;;;;5.05;0.98;;;;;;;37.88;24.13;98893.94;6040289;23;20160;-86
2022/06/29 12:21:08;;;;;;;7.97;1.38;;;;;;;37.29;24.64;98900.50;6038740;23;20157;-86
2022/06/29 12:23:34;;;;;;;4.65;1.00;;;;;;;37.22;25.05;98897.13;6040246;23;20566;-86
2022/06/29 12:26:00;;;;;;;1.65;0.93;;;;;;;37.50;24.21;98894.97;6038595;23;20154;-86
2022/06/29 12:28:25;;;;;;;5.45;1.00;;;;;;;37.63;24.34;98891.00;6006738;23;20252;-86
2022/06/29 12:30:51;;;;;;;2.13;0.80;;;;;;;38.06;24.86;98890.78;6035942;23;20161;-86
2022/06/29 12:33:17;;;;;;;7.25;0.90;;;;;;;38.06;24.90;98885.31;6038226;23;20477;-87
2022/06/29 12:35:43;;;;;;;1.27;0.70;;;;;;;37.84;24.14;98889.22;6038249;23;20154;-86
2022/06/29 12:38:09;;;;;;;2.30;0.93;;;;;;;37.66;25.52;98882.22;6038165;23;20197;-86
2022/06/29 12:40:35;;;;;;;1.70;1.05;;;;;;;36.87;24.60;98883.88;6038115;23;20153;-87
2022/06/29 12:43:01;;;;;;;2.55;0.70;;;;;;;36.76;25.29;98895.78;6014644;23;20165;-87
2022/06/29 12:45:26;;;;;;;1.70;0.70;;;;;;;36.08;25.89;98898.94;6038993;23;20150;-86
2022/06/29 12:47:53;;;;;;;1.75;0.70;;;;;;;35.94;25.55;98886.66;6039495;23;20613;-86
2022/06/29 12:50:19;;;;;;;1.85;0.90;;;;;;;36.27;25.00;98884.72;6039079;23;20260;-86
2022/06/29 12:52:47;;;;;;;4.25;0.80;;;;;;;36.52;25.01;98878.81;6057289;23;20268;-86
2022/06/29 12:55:14;;;;;;;3.10;1.00;;;;;;;36.82;25.83;98870.97;6067923;23;20152;-86
2022/06/29 12:57:41;;;;;;;2.72;1.00;;;;;;;37.20;26.01;98871.94;6067877;23;20177;-87
2022/06/29 13:00:07;;;;;;;1.60;0.85;;;;;;;37.30;25.16;98877.50;6067617;23;20153;-87
2022/06/29 13:02:32;;;;;;;2.30;0.80;;;;;;;37.19;25.23;98873.03;6067111;23;20164;-87
2022/06/29 13:04:58;;;;;;;1.02;0.57;;;;;;;37.28;24.30;98869.59;6067715;23;20195;-86
2022/06/29 13:07:26;;;;;;;1.65;0.65;;;;;;;37.59;23.36;98867.97;6067971;23;20160;-86
2022/06/29 13:09:54;;;;;;;1.52;0.70;;;;;;;37.52;23.77;98873.66;6067773;23;20214;-87
2022/06/29 13:12:20;;;;;;;5.03;1.35;;;;;;;37.59;23.77;98862.50;6067611;23;20157;-86
2022/06/29 13:14:45;;;;;;;3.17;0.98;;;;;;;37.53;23.64;98866.25;6067545;23;20495;-86
2022/06/29 13:17:11;;;;;;;2.95;0.80;;;;;;;37.29;24.24;98871.22;6067353;23;20224;-86
2022/06/29 13:19:37;;;;;;;2.92;0.80;;;;;;;36.80;24.59;98869.59;6041626;23;20173;-86
2022/06/29 13:22:02;;;;;;;1.25;0.70;;;;;;;36.98;24.30;98868.47;6068469;23;20164;-86
2022/06/29 13:24:28;;;;;;;3.05;0.98;;;;;;;37.30;24.20;98863.84;6069566;23;20235;-86
2022/06/29 13:26:54;;;;;;;3.40;0.70;;;;;;;37.57;24.43;98861.94;6069708;23;20196;-85
2022/06/29 13:29:22;;;;;;;5.18;0.70;;;;;;;37.63;22.89;98860.91;6069215;23;20204;-86
2022/06/29 13:31:48;;;;;;;1.88;0.98;;;;;;;37.53;24.03;98852.56;6069963;23;20209;-86
2022/06/29 13:34:13;;;;;;;1.83;0.70;;;;;;;37.49;23.31;98848.72;6070059;23;20215;-86
2022/06/29 13:36:39;;;;;;;1.85;1.08;;;;;;;37.58;23.45;98844.41;6071020;23;20167;-86
2022/06/29 13:39:05;;;;;;;2.83;0.85;;;;;;;37.93;22.80;98844.72;6070592;23;20212;-86
2022/06/29 13:41:31;;;;;;;1.98;0.88;;;;;;;37.85;22.34;98836.97;6070894;23;20149;-86
2022/06/29 13:43:56;;;;;;;4.18;0.82;;;;;;;37.76;23.65;98835.00;6070649;23;20153;-86
2022/06/29 13:46:22;;;;;;;2.47;1.15;;;;;;;38.02;23.45;98843.13;6070895;23;20224;-86
2022/06/29 13:48:47;;;;;;;3.25;0.77;;;;;;;38.35;23.40;98835.66;6070749;23;20181;-86
2022/06/29 13:51:12;;;;;;;4.20;0.80;;;;;;;38.43;23.44;98835.97;6070981;23;20163;-86
2022/06/29 13:53:38;;;;;;;3.83;0.80;;;;;;;38.52;23.10;98830.81;6070853;23;20179;-86
2022/06/29 13:56:05;;;;;;;1.58;0.73;;;;;;;38.61;22.07;98823.69;6070923;23;20157;-86
2022/06/29 13:58:30;;;;;;;2.70;0.93;;;;;;;38.54;22.34;98831.34;6070601;23;20149;-87
2022/06/29 14:00:56;;;;;;;3.60;0.90;;;;;;;38.51;21.76;98826.41;6070709;23;20537;-87
2022/06/29 14:03:21;;;;;;;3.05;0.95;;;;;;;38.50;22.94;98827.47;6071032;23;20573;-86
2022/06/29 14:05:47;;;;;;;2.53;0.88;;;;;;;38.47;23.16;98820.63;6070684;23;20474;-86
2022/06/29 14:08:12;;;;;;;1.60;0.85;;;;;;;38.21;23.23;98827.06;6045732;23;20215;-86
2022/06/29 14:10:38;;;;;;;2.80;0.95;;;;;;;38.18;23.37;98826.78;6070713;23;20152;-86
2022/06/29 14:13:03;;;;;;;5.38;0.88;;;;;;;38.27;22.71;98825.16;6071341;23;20540;-87
2022/06/29 14:15:29;;;;;;;4.32;1.00;;;;;;;38.12;22.18;98821.28;6070890;23;20157;-86
2022/06/29 14:17:54;;;;;;;1.77;0.73;;;;;;;38.24;22.87;98817.47;6071075;23;20601;-86
2022/06/29 14:20:20;;;;;;;4.88;1.25;;;;;;;38.31;22.20;98823.59;6070568;23;20153;-86
2022/06/29 14:22:45;;;;;;;2.63;0.90;;;;;;;38.27;22.98;98817.78;6046055;23;20489;-86
2022/06/29 14:25:11;;;;;;;2.97;1.17;;;;;;;37.68;23.89;98819.88;6045686;23;20562;-87
2022/06/29 14:27:37;;;;;;;2.42;1.13;;;;;;;38.00;22.59;98815.19;6070806;23;20192;-86
2022/06/29 14:30:04;;;;;;;2.28;1.02;;;;;;;37.81;23.23;98818.59;6070663;23;20260;-86
2022/06/29 14:32:30;;;;;;;2.22;1.20;;;;;;;37.84;23.02;98816.16;6069773;23;20157;-86
2022/06/29 14:34:55;;;;;;;2.10;1.10;;;;;;;38.06;22.79;98811.38;6069333;23;20220;-86
2022/06/29 14:37:21;;;;;;;5.18;0.98;;;;;;;38.25;23.02;98798.06;6069346;23;20527;-86
2022/06/29 14:39:48;;;;;;;3.72;1.00;;;;;;;38.40;22.93;98805.53;6068964;23;20145;-87
2022/06/29 14:42:14;;;;;;;4.10;0.85;;;;;;;38.01;23.41;98813.28;6044048;23;20170;-87
2022/06/29 14:44:39;;;;;;;3.10;1.45;;;;;;;37.56;23.36;98808.28;6068411;23;20153;-87
2022/06/29 14:47:05;;;;;;;2.95;1.33;;;;;;;37.72;23.93;98806.50;6068567;23;20536;-87
2022/06/29 14:49:31;;;;;;;6.22;1.25;;;;;;;37.11;23.61;98802.44;6068611;23;20212;-87
2022/06/29 14:51:56;;;;;;;1.92;0.70;;;;;;;37.03;24.17;98806.44;6068403;23;20240;-87
2022/06/29 14:54:22;;;;;;;1.98;1.10;;;;;;;37.11;24.68;98805.19;6068830;23;20141;-86
2022/06/29 14:56:47;;;;;;;4.28;1.50;;;;;;;36.98;24.50;98800.94;6068992;23;20189;-87
2022/06/29 14:59:13;;;;;;;2.47;1.13;;;;;;;36.88;23.79;98798.09;6069000;23;20181;-86
2022/06/29 15:01:39;;;;;;;3.58;1.38;;;;;;;36.87;24.48;98802.72;6069283;23;20153;-86
2022/06/29 15:04:06;;;;;;;1.65;0.70;;;;;;;37.06;23.88;98791.44;6069177;23;20280;-86
2022/06/29 15:06:31;;;;;;;3.08;1.40;;;;;;;37.32;24.47;98788.66;6068998;23;20149;-87
2022/06/29 15:08:57;;;;;;;3.55;0.93;;;;;;;37.19;23.35;98788.28;6068660;23;20188;-86
2022/06/29 15:11:23;;;;;;;3.92;0.90;;;;;;;36.86;24.12;98792.06;6068809;23;20580;-86
2022/06/29 15:13:48;;;;;;;3.42;1.15;;;;;;;36.42;24.53;98788.56;6069131;23;20550;-86
2022/06/29 15:16:14;;;;;;;2.33;1.00;;;;;;;36.16;25.04;98781.97;6067740;23;20259;-86
2022/06/29 15:18:40;;;;;;;3.88;1.10;;;;;;;36.06;24.44;98791.94;6068815;23;20587;-86
2022/06/29 15:21:07;;;;;;;4.18;1.20;;;;;;;35.99;24.61;98788.50;6068957;23;20570;-86
2022/06/29 15:23:32;;;;;;;3.25;1.02;;;;;;;36.12;25.35;98788.16;6068579;23;20149;-87
2022/06/29 15:25:58;;;;;;;2.97;0.80;;;;;;;35.85;25.45;98787.25;6068917;23;20184;-86
2022/06/29 15:28:23;;;;;;;2.45;1.40;;;;;;;35.52;25.30;98786.19;6068518;23;20153;-87
2022/06/29 15:30:49;;;;;;;2.92;1.00;;;;;;;35.64;25.31;98784.19;6068716;23;20157;-87
2022/06/29 15:38:45;;;;;;;4.47;1.65;;;;;;;35.56;24.76;98779.16;6068445;23;20153;-86
2022/06/29 15:38:46;;;;;;;3.05;1.23;;;;;;;35.70;25.23;98775.03;6068398;23;20567;-86
2022/06/29 15:41:12;;;;;;;3.03;0.85;;;;;;;35.88;25.15;98773.91;6068997;23;20212;-86
2022/06/29 15:43:37;;;;;;;7.70;2.78;;;;;;;35.84;25.73;98774.66;6068082;23;20157;-86
2022/06/29 15:46:03;;;;;;;2.15;0.98;;;;;;;35.91;25.56;98775.31;6067563;23;20209;-86
2022/06/29 15:48:29;;;;;;;4.10;1.05;;;;;;;35.92;25.02;98777.78;6042343;23;20157;-87
2022/06/29 15:50:54;;;;;;;3.20;1.13;;;;;;;35.84;25.24;98769.22;6068678;23;20240;-86
2022/06/29 15:56:04;;;;;;;5.32;1.40;;;;;;;35.83;24.71;98773.00;6068549;23;20148;-87
2022/06/29 15:58:29;;;;;;;2.30;1.00;;;;;;;35.74;24.52;98776.19;6069341;23;20157;-86
2022/06/29 16:00:55;;;;;;;4.50;1.35;;;;;;;35.92;25.01;98771.50;6067401;23;20620;-87
2022/06/29 16:03:20;;;;;;;2.33;1.00;;;;;;;35.69;25.22;98769.84;6068011;23;20153;-87
2022/06/29 16:05:45;;;;;;;2.58;0.95;;;;;;;35.82;25.39;98774.94;6068454;23;20157;-87
2022/06/29 16:08:11;;;;;;;3.80;1.02;;;;;;;35.80;24.74;98774.34;6068370;23;20478;-87
2022/06/29 16:10:36;;;;;;;3.15;1.20;;;;;;;35.48;25.78;98784.22;6066768;23;20221;-87
2022/06/29 16:13:02;;;;;;;1.92;0.80;;;;;;;35.55;25.52;98784.88;6067946;23;20227;-87
2022/06/29 16:15:27;;;;;;;2.42;1.05;;;;;;;35.56;27.22;98779.16;6067815;23;20160;-87
2022/06/29 16:17:53;;;;;;;2.65;1.20;;;;;;;35.59;26.85;98781.41;6067318;23;20589;-87
2022/06/29 16:20:18;;;;;;;2.72;1.40;;;;;;;35.58;27.40;98784.38;6068450;23;20160;-87
2022/06/29 16:22:44;;;;;;;5.22;1.67;;;;;;;35.54;26.68;98781.31;6067485;23;20560;-87
2022/06/29 16:25:09;;;;;;;4.18;1.73;;;;;;;35.47;27.31;98783.38;6043258;23;20589;-87
2022/06/29 16:27:35;;;;;;;3.47;1.27;;;;;;;35.37;27.68;98785.94;6068365;23;20181;-86
2022/06/29 16:30:01;;;;;;;5.68;1.80;;;;;;;35.40;27.83;98777.28;6067833;23;20187;-86
2022/06/29 16:32:27;;;;;;;3.25;1.30;;;;;;;35.34;28.03;98785.59;6067830;23;20228;-86
2022/06/29 16:34:52;;;;;;;1.85;1.20;;;;;;;35.22;28.37;98779.44;6067781;23;20173;-86
2022/06/29 16:37:18;;;;;;;2.25;1.15;;;;;;;35.08;27.91;98779.75;6067086;23;20160;-87
2022/06/29 16:39:44;;;;;;;2.47;1.15;;;;;;;34.99;29.32;98770.28;6066467;23;20167;-86
2022/06/29 16:42:10;;;;;;;3.90;1.05;;;;;;;34.88;28.99;98781.28;6067729;23;20153;-86
2022/06/29 16:44:36;;;;;;;3.75;1.30;;;;;;;34.80;29.42;98779.75;6067895;23;20183;-86
2022/06/29 16:47:02;;;;;;;3.13;0.90;;;;;;;34.68;29.88;98776.25;6067794;23;20149;-87
2022/06/29 16:49:28;;;;;;;2.55;1.10;;;;;;;34.64;29.96;98772.38;6067278;23;20272;-86
2022/06/29 16:51:54;;;;;;;5.20;2.05;;;;;;;34.48;30.26;98767.69;6067494;23;20206;-86
2022/06/29 16:54:20;;;;;;;3.75;1.20;;;;;;;34.42;30.24;98772.19;6067471;23;20168;-86
2022/06/29 16:56:48;;;;;;;1.80;1.02;;;;;;;34.25;31.33;98765.84;6067359;23;20244;-86
2022/06/29 16:59:14;;;;;;;4.80;1.70;;;;;;;34.06;31.94;98766.25;6067755;23;20168;-86
2022/06/29 17:01:39;;;;;;;6.03;1.17;;;;;;;33.95;31.37;98771.47;6042410;23;20169;-86
2022/06/29 17:04:05;;;;;;;3.95;0.98;;;;;;;33.83;31.78;98767.13;6067388;23;20257;-87
2022/06/29 17:06:30;;;;;;;3.10;1.10;;;;;;;33.74;32.25;98766.66;6067986;23;20163;-86
2022/06/29 17:08:58;;;;;;;4.90;1.25;;;;;;;33.66;31.98;98763.47;6067748;23;20524;-86
2022/06/29 17:11:25;;;;;;;2.17;1.08;;;;;;;33.56;32.14;98769.50;6067449;23;20149;-86
2022/06/29 17:13:51;;;;;;;3.17;1.30;;;;;;;33.47;32.21;98765.44;6067424;23;20153;-86
2022/06/29 17:16:17;;;;;;;5.32;1.40;;;;;;;33.34;32.76;98771.13;6067638;23;20285;-86
2022/06/29 17:18:42;;;;;;;3.10;1.17;;;;;;;33.17;33.43;98765.56;6067283;23;20205;-86
2022/06/29 17:21:08;;;;;;;4.97;1.60;;;;;;;33.08;33.17;98761.53;6067764;23;20149;-86
2022/06/29 17:23:34;;;;;;;6.38;1.75;;;;;;;33.00;33.10;98756.41;6068059;23;20228;-86
2022/06/29 17:26:00;;;;;;;2.53;1.20;;;;;;;32.94;33.04;98772.81;6067705;23;20509;-86
2022/06/29 17:28:28;;;;;;;2.65;1.17;;;;;;;32.94;33.30;98761.94;6042877;23;20239;-86
2022/06/29 17:30:54;;;;;;;3.25;1.60;;;;;;;32.89;33.11;98759.91;6041301;23;20156;-86
2022/06/29 17:33:20;;;;;;;4.65;1.02;;;;;;;32.75;32.92;98763.91;6067157;23;20164;-86
2022/06/29 17:35:45;;;;;;;2.45;1.08;;;;;;;32.58;33.45;98768.31;6067070;23;20153;-86
2022/06/29 17:38:11;;;;;;;5.13;1.15;;;;;;;32.47;32.85;98760.94;6067005;23;20241;-86
2022/06/29 17:40:36;;;;;;;4.10;0.98;;;;;;;32.39;33.37;98759.34;6067066;23;20364;-86
2022/06/29 17:43:03;;;;;;;5.47;1.13;;;;;;;32.26;33.34;98769.56;6065690;23;20530;-86
2022/06/29 17:45:29;;;;;;;5.63;1.27;;;;;;;32.00;32.95;98768.81;6065753;23;20188;-87
2022/06/29 17:47:55;;;;;;;3.67;1.13;;;;;;;31.83;34.33;98765.03;6065793;23;20149;-86
2022/06/29 17:50:21;;;;;;;7.88;1.42;;;;;;;31.71;33.98;98757.88;6065714;23;20197;-86
2022/06/29 17:52:46;;;;;;;2.95;1.25;;;;;;;31.64;34.13;98757.94;6040500;23;20196;-86
2022/06/29 17:55:12;;;;;;;2.05;1.08;;;;;;;31.59;33.51;98757.78;6065878;23;20179;-86
2022/06/29 17:57:37;;;;;;;4.10;1.80;;;;;;;31.50;33.62;98754.53;6067989;23;20153;-86
2022/06/29 18:00:04;;;;;;;4.57;1.50;;;;;;;31.43;34.07;98752.91;6068471;23;20153;-86
2022/06/29 18:02:29;;;;;;;5.07;1.85;;;;;;;31.32;34.14;98757.19;6067180;23;20228;-86
2022/06/29 18:04:57;;;;;;;2.20;1.23;;;;;;;31.25;34.33;98756.41;6067920;23;20570;-87
2022/06/29 18:07:22;;;;;;;7.45;1.40;;;;;;;31.08;34.16;98749.88;6043018;23;20464;-87
2022/06/29 18:09:49;;;;;;;5.32;1.42;;;;;;;30.89;34.09;98750.84;6069450;23;20196;-87
2022/06/29 18:12:16;;;;;;;2.15;0.93;;;;;;;30.72;34.49;98738.88;6044717;23;20181;-87
2022/06/29 18:14:41;;;;;;;3.95;1.42;;;;;;;30.54;35.23;98736.94;6069696;23;20149;-87
2022/06/29 18:17:07;;;;;;;4.05;1.30;;;;;;;30.47;35.31;98738.03;6069825;23;20588;-86
2022/06/29 18:19:32;;;;;;;3.33;1.33;;;;;;;30.44;35.16;98742.00;6044988;23;20548;-87
2022/06/29 18:21:58;;;;;;;2.70;1.25;;;;;;;30.33;35.85;98734.53;6069807;23;20561;-86
2022/06/29 18:24:23;;;;;;;2.17;1.15;;;;;;;30.29;35.86;98742.22;6070398;23;20153;-87
2022/06/29 18:26:49;;;;;;;4.03;1.25;;;;;;;30.23;35.52;98744.97;6069734;23;20232;-86
2022/06/29 18:29:14;;;;;;;3.05;1.33;;;;;;;30.15;35.87;98739.81;6069578;23;20185;-86
2022/06/29 18:31:40;;;;;;;5.18;1.65;;;;;;;30.02;36.71;98737.16;6069988;23;20153;-87
2022/06/29 18:34:05;;;;;;;4.55;1.50;;;;;;;29.96;36.37;98735.31;6070313;23;20152;-87
2022/06/29 18:36:32;;;;;;;2.20;0.95;;;;;;;29.90;36.83;98741.59;6070293;23;20190;-87
2022/06/29 18:38:58;;;;;;;3.30;1.35;;;;;;;29.93;37.03;98739.28;6069568;23;20149;-86
2022/06/29 18:41:23;;;;;;;6.63;1.80;;;;;;;29.99;36.75;98745.69;6070255;23;20164;-87
2022/06/29 18:43:48;;;;;;;5.28;0.95;;;;;;;29.91;36.19;98745.94;6069699;23;20627;-87
2022/06/29 18:46:14;;;;;;;4.47;1.60;;;;;;;29.81;36.86;98747.22;6069369;23;20224;-86
2022/06/29 18:48:39;;;;;;;5.55;1.25;;;;;;;29.73;37.22;98750.13;6069439;23;20256;-86
2022/06/29 18:51:05;;;;;;;7.28;1.85;;;;;;;29.67;37.45;98748.25;6069453;23;20153;-86
2022/06/29 18:53:30;;;;;;;2.70;1.45;;;;;;;29.60;38.20;98755.56;6069347;23;20169;-87
2022/06/29 18:55:56;;;;;;;7.10;2.42;;;;;;;29.63;38.66;98755.16;6069613;23;20185;-86
2022/06/29 18:58:22;;;;;;;7.80;1.70;;;;;;;29.58;38.92;98754.13;6069223;23;20156;-86
2022/06/29 19:00:48;;;;;;;3.67;1.65;;;;;;;29.52;39.17;98754.94;6069751;23;20580;-87
2022/06/29 19:03:14;;;;;;;5.53;1.92;;;;;;;29.55;39.44;98758.06;6069232;23;20186;-87
2022/06/29 19:05:40;;;;;;;8.05;1.80;;;;;;;29.52;39.70;98757.66;6069321;23;20153;-87
2022/06/29 19:08:05;;;;;;;5.10;2.22;;;;;;;29.39;40.26;98753.09;6069330;23;20149;-86
2022/06/29 19:10:31;;;;;;;4.75;1.52;;;;;;;29.30;40.53;98754.34;6069857;23;20177;-87
2022/06/29 19:12:57;;;;;;;4.45;2.03;;;;;;;29.31;40.94;98756.00;6069265;23;20163;-87
2022/06/29 19:15:23;;;;;;;8.35;2.25;;;;;;;29.25;41.20;98756.84;6069232;23;20247;-86
2022/06/29 19:17:48;;;;;;;4.05;1.50;;;;;;;29.22;41.07;98762.66;6069246;23;20224;-87
2022/06/29 19:20:14;;;;;;;3.85;1.42;;;;;;;29.19;41.44;98774.66;6069059;23;20205;-86
2022/06/29 19:22:40;;;;;;;5.53;1.73;;;;;;;29.12;41.30;98770.31;6044040;23;20231;-87
2022/06/29 19:25:06;;;;;;;5.38;1.95;;;;;;;28.95;40.91;98766.38;6068795;23;20593;-86
2022/06/29 19:27:31;;;;;;;3.90;1.45;;;;;;;28.90;41.30;98775.09;6069129;23;20154;-87
2022/06/29 19:29:57;;;;;;;4.78;1.60;;;;;;;28.88;41.18;98776.34;6068908;23;20176;-86
2022/06/29 19:32:22;;;;;;;4.22;1.90;;;;;;;28.74;41.00;98763.84;6069005;23;20297;-87
2022/06/29 19:34:48;;;;;;;4.82;1.73;;;;;;;28.61;41.69;98770.03;6069175;23;20165;-86
2022/06/29 19:37:14;;;;;;;4.25;2.00;;;;;;;28.61;40.87;98765.50;6044835;23;20477;-90
2022/06/29 19:39:40;;;;;;;9.77;2.10;;;;;;;28.48;41.56;98770.84;6069328;23;20156;-89
2022/06/29 19:42:06;;;;;;;4.95;1.98;;;;;;;28.38;41.52;98767.66;6069055;23;20164;-89
2022/06/29 19:44:32;;;;;;;11.73;2.30;;;;;;;28.40;41.81;98772.88;6068929;23;20562;-89
2022/06/29 19:46:58;;;;;;;4.80;1.73;;;;;;;28.35;42.49;98781.59;6067857;23;20156;-89
2022/06/29 19:49:29;;;;;;;11.82;2.75;;;;;;;28.29;42.41;98776.16;6068532;23;20181;-89
2022/06/29 19:51:56;;;;;;;12.05;2.13;;;;;;;28.22;42.12;98772.59;6069198;23;20248;-87
2022/06/29 19:54:22;;;;;;;3.50;2.13;;;;;;;28.09;42.51;98765.31;6069295;23;20149;-86
2022/06/29 19:56:47;;;;;;;6.80;2.25;;;;;;;28.04;42.79;98767.75;6068969;23;20149;-87
2022/06/29 19:59:13;;;;;;;3.50;1.83;;;;;;;27.97;42.87;98769.56;6043811;23;20217;-87
2022/06/29 20:01:38;;;;;;;3.20;1.80;;;;;;;27.91;42.12;98775.72;6068872;23;20508;-87
2022/06/29 20:04:04;;;;;;;4.10;1.77;;;;;;;27.82;42.67;98774.25;6069224;23;20153;-86
2022/06/29 20:06:29;;;;;;;9.02;1.85;;;;;;;27.76;42.57;98780.41;6068776;23;20150;-87
2022/06/29 20:08:55;;;;;;;8.68;1.90;;;;;;;27.68;43.05;98778.72;6068692;23;20617;-87
2022/06/29 20:11:21;;;;;;;3.17;1.33;;;;;;;27.65;42.87;98775.56;6069101;23;20604;-86
2022/06/29 20:17:10;;;;;;;3.00;1.38;;;;;;;27.50;43.57;98781.09;6068369;23;20540;-86
2022/06/29 20:19:38;;;;;;;3.67;1.73;;;;;;;27.49;43.68;98784.00;6068327;23;20304;-86
2022/06/29 20:22:04;;;;;;;6.60;2.00;;;;;;;27.49;43.25;98784.78;6069084;23;20153;-86
2022/06/29 20:24:29;;;;;;;7.20;1.67;;;;;;;27.39;43.49;98785.16;6042209;23;20245;-86
2022/06/29 20:26:59;;;;;;;4.65;1.90;;;;;;;27.29;44.21;98791.88;6067536;23;20556;-86
2022/06/29 20:29:27;;;;;;;4.43;1.65;;;;;;;27.18;43.45;98792.41;6043803;23;20185;-86
2022/06/29 20:31:53;;;;;;;4.35;1.63;;;;;;;27.14;43.24;98791.97;6067863;23;20216;-87
2022/06/29 20:34:18;;;;;;;4.82;1.50;;;;;;;27.11;43.23;98786.97;6042296;23;20184;-86
2022/06/29 20:36:44;;;;;;;4.47;2.13;;;;;;;27.03;43.62;98784.41;6068050;23;20558;-86
2022/06/29 20:39:10;;;;;;;5.35;1.27;;;;;;;26.99;44.19;98779.63;6068095;23;20573;-89
2022/06/29 20:41:35;;;;;;;3.97;1.40;;;;;;;26.96;44.10;98782.69;6043327;23;20532;-89
2022/06/29 20:46:44;;;;;;;3.70;1.77;;;;;;;26.95;44.29;98787.25;6064360;23;20160;-91
2022/06/29 20:49:11;;;;;;;3.55;1.70;;;;;;;26.93;44.95;98781.22;6065882;23;20613;-89
2022/06/29 20:51:36;;;;;;;3.33;1.38;;;;;;;26.95;44.99;98789.09;6066859;23;20172;-89
2022/06/29 20:54:03;;;;;;;3.00;1.30;;;;;;;26.92;44.62;98787.63;6038751;23;20161;-89
2022/06/29 20:56:28;;;;;;;2.85;1.60;;;;;;;26.85;44.88;98784.03;6041481;23;20646;-89
2022/06/29 20:58:55;;;;;;;2.80;1.45;;;;;;;26.86;45.10;98788.38;6066810;23;20145;-89
2022/06/29 21:01:21;;;;;;;3.22;1.40;;;;;;;26.80;44.99;98781.94;6041167;23;20657;-89
2022/06/29 21:03:47;;;;;;;4.75;1.30;;;;;;;26.77;44.92;98779.63;6043122;23;20494;-89
2022/06/29 21:06:15;;;;;;;4.07;1.57;;;;;;;26.74;45.22;98784.50;6068207;23;20489;-89
2022/06/29 21:08:44;;;;;;;4.43;1.67;;;;;;;26.69;45.32;98778.88;6067953;23;20157;-89
2022/06/29 21:11:11;;;;;;;3.63;1.20;;;;;;;26.63;44.96;98774.25;6043224;23;20157;-89
2022/06/29 21:13:37;;;;;;;1.77;1.20;;;;;;;26.54;45.19;98781.63;6067714;23;20149;-89
2022/06/29 21:16:03;;;;;;;3.08;1.80;;;;;;;26.47;45.93;98777.19;6067788;23;20167;-89
2022/06/29 21:18:28;;;;;;;5.53;1.90;;;;;;;26.44;46.02;98775.72;6068406;23;20149;-89
2022/06/29 21:20:57;;;;;;;4.25;1.80;;;;;;;26.35;46.38;98779.56;6043000;23;20300;-89
2022/06/29 21:23:22;;;;;;;3.97;1.37;;;;;;;26.31;45.55;98774.75;6067835;23;20149;-89
2022/06/29 21:25:48;;;;;;;5.38;1.33;;;;;;;26.27;46.41;98776.97;6068194;23;20164;-89
2022/06/29 21:28:13;;;;;;;7.77;1.47;;;;;;;26.16;46.69;98774.75;6043244;23;20240;-89
2022/06/29 21:30:39;;;;;;;3.27;1.30;;;;;;;26.07;46.69;98771.31;6067908;23;20177;-89
2022/06/29 21:33:04;;;;;;;4.87;1.50;;;;;;;26.04;46.79;98766.34;6068166;23;20216;-89
2022/06/29 21:35:30;;;;;;;2.67;1.30;;;;;;;26.09;47.25;98769.28;6068393;23;20236;-89
2022/06/29 21:37:55;;;;;;;3.80;1.60;;;;;;;26.11;46.82;98764.56;6043283;23;20562;-89
2022/06/29 21:40:21;;;;;;;3.57;1.33;;;;;;;26.09;47.41;98769.28;6043115;23;20149;-90
2022/06/29 21:42:46;;;;;;;3.40;1.70;;;;;;;26.07;47.17;98759.75;6043620;23;20566;-89
2022/06/29 21:45:12;;;;;;;2.73;1.33;;;;;;;25.95;47.32;98756.69;6044977;23;20241;-89
2022/06/29 21:47:39;;;;;;;2.93;1.30;;;;;;;25.91;47.32;98750.06;6069959;23;20149;-89
2022/06/29 21:52:50;;;;;;;3.83;1.60;;;;;;;25.95;47.83;98756.69;6069793;23;20256;-89
2022/06/29 21:55:16;;;;;;;4.90;1.00;;;;;;;25.97;47.49;98760.03;6045164;23;20552;-89
2022/06/29 21:57:41;;;;;;;4.27;1.60;;;;;;;25.92;47.25;98756.22;6070164;23;20573;-89
2022/06/29 22:00:09;;;;;;;3.43;1.20;;;;;;;25.83;47.50;98758.22;6042560;23;20175;-89
2022/06/29 22:02:35;;;;;;;3.70;1.47;;;;;;;25.76;47.97;98764.50;6069235;23;20574;-89
2022/06/29 22:05:01;;;;;;;4.10;1.53;;;;;;;25.65;47.72;98763.13;6044603;23;20157;-89
2022/06/29 22:07:26;;;;;;;3.60;1.30;;;;;;;25.58;48.33;98759.50;6067392;23;20158;-88
2022/06/29 22:09:52;;;;;;;4.53;1.30;;;;;;;25.60;48.11;98757.47;6043647;23;20260;-89
2022/06/29 22:12:17;;;;;;;4.17;1.40;;;;;;;25.47;49.09;98758.09;6069001;23;20157;-88
2022/06/29 22:14:42;;;;;;;2.10;1.13;;;;;;;25.38;48.99;98751.13;6068271;23;20187;-89
2022/06/29 22:17:09;;;;;;;6.80;1.40;;;;;;;25.41;48.76;98752.63;6043394;23;20574;-89
2022/06/29 22:19:35;;;;;;;4.33;1.13;;;;;;;25.42;48.60;98751.59;6068157;23;20145;-89
2022/06/29 22:22:04;;;;;;;4.30;1.97;;;;;;;25.38;48.34;98753.81;6068541;23;20161;-89
2022/06/29 22:24:29;;;;;;;2.33;1.33;;;;;;;25.30;48.41;98753.06;6068595;23;20164;-89
2022/06/29 22:26:55;;;;;;;4.90;2.17;;;;;;;25.19;49.56;98758.84;6068607;23;20154;-89
2022/06/29 22:29:20;;;;;;;2.73;1.50;;;;;;;25.08;50.07;98753.97;6067495;23;20188;-89
2022/06/29 22:31:47;;;;;;;7.30;1.53;;;;;;;25.04;49.54;98751.63;6068971;23;20558;-89
2022/06/29 22:34:13;;;;;;;4.07;1.33;;;;;;;25.04;49.93;98754.31;6068808;23;20595;-89
2022/06/29 22:36:39;;;;;;;5.30;1.40;;;;;;;25.02;49.63;98751.00;6043519;23;20559;-89
2022/06/29 22:39:04;;;;;;;3.77;1.40;;;;;;;25.07;49.57;98754.97;6068960;23;20155;-88
2022/06/29 22:41:30;;;;;;;4.13;1.43;;;;;;;24.98;50.00;98756.88;6069275;23;20152;-88
2022/06/29 22:43:55;;;;;;;3.33;1.30;;;;;;;24.97;50.37;98758.72;6068936;23;20180;-89
2022/06/29 22:46:21;;;;;;;2.83;1.20;;;;;;;25.00;50.18;98755.69;6069125;23;20232;-89
2022/06/29 22:48:46;;;;;;;2.47;1.07;;;;;;;24.92;51.09;98753.06;6069065;23;20149;-89
2022/06/29 22:51:12;;;;;;;4.80;1.30;;;;;;;24.87;51.53;98754.63;6069297;23;20296;-89
2022/06/29 22:53:38;;;;;;;6.13;1.47;;;;;;;24.86;50.74;98753.81;6069094;23;20244;-89
2022/06/29 22:56:05;;;;;;;2.67;1.47;;;;;;;24.89;50.97;98753.44;6068769;23;20156;-88
2022/06/29 22:58:32;;;;;;;3.73;1.43;;;;;;;24.86;50.96;98756.50;6020363;23;20203;-89
2022/06/29 23:00:58;;;;;;;2.97;1.70;;;;;;;24.84;50.35;98760.38;6068632;23;20199;-88
2022/06/29 23:03:24;;;;;;;5.60;1.37;;;;;;;24.81;50.43;98761.56;6068762;23;20565;-88
2022/06/29 23:05:49;;;;;;;4.73;1.70;;;;;;;24.75;50.96;98764.06;6069150;23;20153;-89
2022/06/29 23:08:16;;;;;;;12.23;1.70;;;;;;;24.61;51.70;98773.72;6069265;23;20641;-88
2022/06/29 23:13:30;;;;;;;2.60;1.30;;;;;;;24.48;51.52;98781.50;6068873;23;20176;-88
2022/06/29 23:15:58;;;;;;;2.33;1.20;;;;;;;24.50;51.88;98779.50;6037906;23;20157;-88
2022/06/29 23:18:25;;;;;;;1.90;1.17;;;;;;;24.52;51.84;98785.53;6068993;23;20160;-88
2022/06/29 23:20:50;;;;;;;2.97;1.43;;;;;;;24.49;52.15;98793.06;6043633;23;20161;-88
2022/06/29 23:23:16;;;;;;;3.80;1.63;;;;;;;24.36;52.43;98789.13;6043925;23;20168;-88
2022/06/29 23:25:43;;;;;;;2.97;1.77;;;;;;;24.34;52.57;98785.78;6043425;23;20283;-88
2022/06/29 23:28:08;;;;;;;3.67;1.83;;;;;;;24.40;52.11;98789.59;6043743;23;20161;-88
2022/06/29 23:30:34;;;;;;;3.97;1.70;;;;;;;24.38;52.05;98788.94;6043910;23;20280;-89
2022/06/29 23:32:59;;;;;;;3.27;1.23;;;;;;;24.42;52.32;98787.59;6044308;23;20153;-89
2022/06/29 23:35:25;;;;;;;6.83;1.60;;;;;;;24.40;52.40;98785.06;6044188;23;20574;-89
2022/06/29 23:37:51;;;;;;;4.07;2.07;;;;;;;24.35;52.69;98778.56;6067257;23;20161;-88